createdAt,value
2022-11-20T00:01:11.728Z,19.77
2022-11-20T00:03:39.666Z,21.33
2022-11-20T00:06:09.614Z,19.30
2022-11-20T00:08:39.380Z,17.98
2022-11-20T00:11:12.807Z,18.17
2022-11-20T00:13:43.529Z,19.63
2022-11-20T00:16:13.710Z,19.73
2022-11-20T00:18:43.268Z,21.00
2022-11-20T00:21:16.731Z,20.20
2022-11-20T00:23:47.008Z,20.10
2022-11-20T00:26:16.667Z,19.73
2022-11-20T00:28:45.569Z,20.40
2022-11-20T00:31:16.269Z,20.55
2022-11-20T00:33:45.389Z,18.98
2022-11-20T00:36:15.264Z,19.58
2022-11-20T00:38:43.499Z,18.92
2022-11-20T00:41:14.520Z,19.90
2022-11-20T00:43:42.681Z,21.25
2022-11-20T00:46:12.266Z,19.60
2022-11-20T00:48:40.180Z,21.25
2022-11-20T00:51:08.461Z,18.10
2022-11-20T00:53:36.720Z,20.98
2022-11-20T00:56:07.225Z,21.02
2022-11-20T00:58:38.283Z,20.52
2022-11-20T01:01:08.046Z,21.83
2022-11-20T01:03:37.003Z,21.08
2022-11-20T01:06:06.123Z,19.67
2022-11-20T01:08:35.546Z,21.15
2022-11-20T01:11:05.295Z,20.75
2022-11-20T01:13:39.405Z,21.67
2022-11-20T01:16:10.585Z,20.90
2022-11-20T01:18:39.629Z,20.73
2022-11-20T01:21:09.793Z,20.85
2022-11-20T01:23:39.947Z,20.73
2022-11-20T01:26:10.180Z,21.00
2022-11-20T01:28:38.496Z,20.60
2022-11-20T01:31:15.292Z,21.85
2022-11-20T01:33:44.062Z,20.80
2022-11-20T01:36:13.172Z,20.65
2022-11-20T01:38:41.239Z,22.30
2022-11-20T01:41:10.161Z,22.30
2022-11-20T01:43:37.246Z,21.27
2022-11-20T01:46:17.993Z,21.95
2022-11-20T01:48:52.784Z,20.40
2022-11-20T01:51:27.657Z,20.38
2022-11-20T01:53:58.133Z,20.60
2022-11-20T01:56:27.798Z,19.98
2022-11-20T01:59:00.198Z,19.52
2022-11-20T02:01:30.058Z,20.95
2022-11-20T02:03:58.702Z,22.08
2022-11-20T02:06:30.111Z,20.70
2022-11-20T02:08:58.169Z,21.10
2022-11-20T02:11:26.282Z,23.08
2022-11-20T02:13:55.330Z,21.45
2022-11-20T02:16:26.252Z,20.58
2022-11-20T02:18:57.465Z,20.77
2022-11-20T02:21:38.173Z,21.75
2022-11-20T02:24:13.596Z,20.27
2022-11-20T02:26:48.395Z,20.38
2022-11-20T02:29:19.438Z,21.52
2022-11-20T02:31:47.837Z,20.50
2022-11-20T02:34:15.741Z,22.17
2022-11-20T02:36:45.103Z,21.27
2022-11-20T02:39:17.932Z,21.50
2022-11-20T02:41:46.531Z,21.40
2022-11-20T02:44:14.597Z,21.10
2022-11-20T02:46:42.544Z,21.35
2022-11-20T02:49:10.448Z,20.90
2022-11-20T02:51:38.484Z,21.52
2022-11-20T02:54:06.823Z,21.90
2022-11-20T02:56:36.083Z,22.33
2022-11-20T02:59:03.956Z,22.42
2022-11-20T03:01:31.865Z,22.05
2022-11-20T03:03:59.789Z,21.35
2022-11-20T03:06:27.714Z,21.40
2022-11-20T03:08:55.743Z,22.63
2022-11-20T03:11:23.584Z,23.05
2022-11-20T03:13:52.796Z,22.63
2022-11-20T03:16:22.898Z,22.42
2022-11-20T03:18:51.457Z,23.27
2022-11-20T03:21:19.510Z,25.23
2022-11-20T03:23:47.508Z,22.48
2022-11-20T03:26:18.241Z,22.35
2022-11-20T03:28:49.886Z,20.50
2022-11-20T03:31:21.282Z,21.88
2022-11-20T03:33:49.584Z,22.77
2022-11-20T03:36:19.427Z,22.13
2022-11-20T03:38:48.164Z,22.50
2022-11-20T03:41:18.195Z,22.85
2022-11-20T03:43:49.606Z,22.15
2022-11-20T03:46:18.887Z,23.25
2022-11-20T03:48:51.298Z,22.10
2022-11-20T03:51:21.533Z,23.27
2022-11-20T03:53:50.133Z,22.25
2022-11-20T03:56:19.764Z,21.98
2022-11-20T03:58:47.903Z,23.70
2022-11-20T04:01:18.908Z,22.52
2022-11-20T04:03:48.462Z,22.67
2022-11-20T04:06:18.760Z,21.70
2022-11-20T04:08:52.364Z,22.20
2022-11-20T04:11:23.201Z,21.05
2022-11-20T04:13:52.541Z,21.60
2022-11-20T04:16:21.289Z,23.30
2022-11-20T04:18:54.045Z,23.75
2022-11-20T04:21:22.322Z,21.75
2022-11-20T04:23:50.267Z,22.42
2022-11-20T04:26:18.506Z,23.75
2022-11-20T04:28:46.391Z,23.33
2022-11-20T04:31:16.161Z,22.30
2022-11-20T04:33:44.578Z,23.85
2022-11-20T04:36:15.588Z,22.33
2022-11-20T04:38:43.509Z,23.17
2022-11-20T04:41:17.194Z,22.63
2022-11-20T04:43:48.693Z,23.17
2022-11-20T04:46:17.645Z,21.83
2022-11-20T04:48:45.708Z,21.23
2022-11-20T04:51:15.298Z,23.95
2022-11-20T04:53:43.696Z,23.60
2022-11-20T04:56:13.719Z,21.70
2022-11-20T04:58:41.858Z,22.83
2022-11-20T05:01:12.778Z,24.30
2022-11-20T05:03:42.480Z,21.05
2022-11-20T05:06:12.005Z,24.33
2022-11-20T05:08:41.688Z,24.25
2022-11-20T05:11:11.914Z,23.15
2022-11-20T05:13:40.806Z,22.33
2022-11-20T05:16:10.903Z,23.27
2022-11-20T05:18:40.331Z,22.73
2022-11-20T05:21:09.159Z,24.38
2022-11-20T05:23:37.143Z,22.67
2022-11-20T05:26:07.461Z,22.65
2022-11-20T05:28:35.646Z,23.35
2022-11-20T05:31:08.338Z,23.25
2022-11-20T05:33:36.560Z,24.45
2022-11-20T05:36:04.916Z,21.35
2022-11-20T05:38:32.818Z,23.52
2022-11-20T05:41:07.487Z,24.90
2022-11-20T05:43:36.127Z,24.55
2022-11-20T05:46:04.688Z,24.27
2022-11-20T05:48:33.017Z,24.15
2022-11-20T05:51:02.067Z,23.53
2022-11-20T05:53:30.375Z,22.85
2022-11-20T05:55:59.502Z,23.73
2022-11-20T05:58:29.104Z,23.13
2022-11-20T06:00:57.290Z,24.17
2022-11-20T06:03:25.247Z,24.20
2022-11-20T06:05:53.187Z,23.02
2022-11-20T06:08:21.099Z,22.73
2022-11-20T06:10:48.960Z,21.95
2022-11-20T06:13:16.796Z,24.67
2022-11-20T06:15:50.734Z,24.08
2022-11-20T06:18:18.893Z,24.70
2022-11-20T06:20:47.294Z,24.42
2022-11-20T06:23:15.478Z,23.90
2022-11-20T06:25:44.580Z,23.33
2022-11-20T06:28:12.454Z,23.25
2022-11-20T06:30:48.131Z,24.42
2022-11-20T06:33:16.122Z,22.95
2022-11-20T06:35:44.037Z,22.70
2022-11-20T06:38:11.987Z,24.65
2022-11-20T06:40:42.663Z,24.10
2022-11-20T06:43:11.512Z,22.20
2022-11-20T06:45:39.470Z,23.90
2022-11-20T06:48:08.999Z,23.42
2022-11-20T06:50:37.046Z,24.33
2022-11-20T06:53:06.227Z,25.90
2022-11-20T06:55:34.377Z,23.92
2022-11-20T06:58:02.285Z,23.88
2022-11-20T07:00:30.401Z,23.58
2022-11-20T07:02:58.406Z,24.73
2022-11-20T07:05:27.685Z,26.20
2022-11-20T07:38:42.121Z,27.92
2022-11-20T07:41:09.970Z,27.13
2022-11-20T07:43:41.231Z,22.65
2022-11-20T08:05:22.093Z,23.42
2022-11-20T08:07:50.148Z,23.00
2022-11-20T08:10:18.579Z,25.58
2022-11-20T08:13:05.421Z,22.42
2022-11-20T08:15:33.940Z,21.40
2022-11-20T08:18:29.496Z,21.98
2022-11-20T08:20:52.951Z,22.85
2022-11-20T08:23:20.879Z,23.63
2022-11-20T08:25:52.005Z,23.88
2022-11-20T08:28:22.313Z,21.80
2022-11-20T08:30:51.396Z,23.95
2022-11-20T08:33:20.065Z,21.90
2022-11-20T08:35:47.971Z,22.17
2022-11-20T08:38:17.221Z,22.67
2022-11-20T08:41:06.284Z,22.42
2022-11-20T08:43:34.675Z,22.75
2022-11-20T08:46:02.502Z,22.17
2022-11-20T08:48:30.413Z,23.40
2022-11-20T08:51:00.542Z,21.98
2022-11-20T08:53:29.867Z,22.85
2022-11-20T08:55:59.035Z,22.25
2022-11-20T08:58:27.415Z,24.17
2022-11-20T09:00:55.323Z,22.73
2022-11-20T09:03:24.858Z,22.77
2022-11-20T09:05:59.448Z,22.00
2022-11-20T09:08:27.477Z,21.88
2022-11-20T09:10:58.646Z,23.20
2022-11-20T09:13:27.518Z,22.90
2022-11-20T09:15:57.222Z,23.63
2022-11-20T09:18:26.058Z,22.75
2022-11-20T09:20:54.637Z,23.63
2022-11-20T09:23:22.575Z,23.45
2022-11-20T09:25:50.496Z,21.98
2022-11-20T09:28:19.765Z,23.67
2022-11-20T09:30:47.577Z,24.40
2022-11-20T09:33:15.515Z,22.42
2022-11-20T09:35:44.544Z,23.27
2022-11-20T09:38:12.934Z,23.98
2022-11-20T09:40:45.984Z,24.45
2022-11-20T09:43:21.926Z,22.88
2022-11-20T09:46:09.160Z,23.00
2022-11-20T09:48:59.720Z,25.50
2022-11-20T09:51:40.042Z,24.55
2022-11-20T09:54:18.342Z,24.77
2022-11-20T09:56:48.950Z,20.10
2022-11-20T09:59:31.709Z,20.25
2022-11-20T10:02:01.939Z,21.50
2022-11-20T10:04:38.191Z,20.00
2022-11-20T10:07:31.968Z,19.50
2022-11-20T10:10:01.408Z,20.77
2022-11-20T10:12:42.641Z,20.52
2022-11-20T10:15:27.309Z,20.20
2022-11-20T10:18:16.718Z,20.80
2022-11-20T10:20:50.946Z,20.48
2022-11-20T10:23:34.826Z,20.17
2022-11-20T10:26:04.948Z,19.33
2022-11-20T10:28:54.043Z,19.27
2022-11-20T10:31:33.276Z,21.00
2022-11-20T10:34:12.484Z,18.50
2022-11-20T10:36:45.688Z,17.92
2022-11-20T10:39:22.177Z,17.27
2022-11-20T10:41:54.370Z,15.90
2022-11-20T10:44:38.058Z,15.85
2022-11-20T10:47:14.391Z,16.10
2022-11-20T10:49:45.201Z,15.55
2022-11-20T10:52:22.500Z,16.20
2022-11-20T10:54:58.629Z,15.50
2022-11-20T10:57:50.221Z,15.48
2022-11-20T11:00:20.100Z,17.02
2022-11-20T11:02:51.669Z,15.70
2022-11-20T11:05:27.484Z,16.35
2022-11-20T11:07:57.595Z,14.13
2022-11-20T11:10:31.118Z,14.40
2022-11-20T11:12:58.976Z,13.82
2022-11-20T11:15:29.257Z,11.00
2022-11-20T11:17:59.235Z,10.50
2022-11-20T11:20:28.312Z,10.82
2022-11-20T11:22:58.324Z,11.25
2022-11-20T11:25:30.279Z,12.63
2022-11-20T11:28:01.062Z,12.18
2022-11-20T11:30:31.278Z,11.18
2022-11-20T11:33:08.468Z,11.63
2022-11-20T11:35:41.647Z,11.82
2022-11-20T11:38:16.801Z,10.35
2022-11-20T11:40:45.760Z,10.80
2022-11-20T11:43:39.934Z,11.68
2022-11-20T11:46:26.302Z,11.38
2022-11-20T11:49:00.315Z,11.20
2022-11-20T11:51:38.585Z,10.98
2022-11-20T11:54:18.576Z,10.05
2022-11-20T11:56:47.962Z,10.00
2022-11-20T11:59:25.118Z,10.35
2022-11-20T12:01:59.208Z,9.98
2022-11-20T12:04:44.127Z,9.77
2022-11-20T12:07:45.111Z,10.52
2022-11-20T12:10:08.156Z,10.45
2022-11-20T12:12:41.084Z,10.82
2022-11-20T12:15:13.115Z,11.18
2022-11-20T12:17:41.290Z,10.63
2022-11-20T12:20:16.102Z,12.43
2022-11-20T12:22:53.876Z,11.20
2022-11-20T12:25:24.961Z,10.65
2022-11-20T12:28:16.481Z,10.57
2022-11-20T12:30:59.765Z,10.98
2022-11-20T12:33:48.021Z,12.00
2022-11-20T12:36:29.948Z,11.57
2022-11-20T12:39:19.449Z,10.57
2022-11-20T12:42:49.810Z,10.00
2022-11-20T12:45:30.509Z,10.40
2022-11-20T12:48:15.215Z,9.48
2022-11-20T12:51:14.049Z,11.00
2022-11-20T12:53:52.606Z,9.07
2022-11-20T12:56:32.226Z,10.32
2022-11-20T12:59:12.110Z,9.75
2022-11-20T13:01:50.624Z,9.98
2022-11-20T13:04:36.213Z,10.50
2022-11-20T13:07:05.915Z,9.35
2022-11-20T13:09:38.824Z,10.35
2022-11-20T13:12:13.118Z,10.25
2022-11-20T13:14:47.693Z,9.10
2022-11-20T13:17:22.767Z,9.27
2022-11-20T13:19:54.306Z,9.23
2022-11-20T13:22:27.674Z,9.57
2022-11-20T13:24:57.597Z,9.88
2022-11-20T13:27:26.316Z,10.77
2022-11-20T13:30:16.474Z,9.43
2022-11-20T13:32:51.293Z,9.73
2022-11-20T13:35:31.817Z,8.98
2022-11-20T13:38:08.707Z,10.10
2022-11-20T13:40:40.157Z,9.68
2022-11-20T13:43:21.674Z,9.25
2022-11-20T13:46:00.914Z,9.23
2022-11-20T13:48:33.640Z,9.88
2022-11-20T13:51:11.063Z,8.43
2022-11-20T13:54:07.777Z,9.30
2022-11-20T13:56:50.494Z,8.70
2022-11-20T13:59:33.501Z,8.00
2022-11-20T14:02:02.795Z,7.68
2022-11-20T14:04:35.550Z,9.05
2022-11-20T14:07:03.827Z,8.88
2022-11-20T14:09:33.859Z,9.45
2022-11-20T14:12:04.915Z,8.23
2022-11-20T14:14:35.022Z,9.05
2022-11-20T14:17:09.633Z,8.05
2022-11-20T14:19:39.447Z,8.88
2022-11-20T14:22:13.150Z,8.93
2022-11-20T14:24:40.941Z,8.70
2022-11-20T14:27:16.509Z,7.90
2022-11-20T14:29:46.687Z,8.02
2022-11-20T14:32:18.519Z,7.60
2022-11-20T14:34:49.689Z,8.48
2022-11-20T14:37:22.713Z,8.23
2022-11-20T14:39:53.925Z,8.50
2022-11-20T14:42:24.785Z,7.78
2022-11-20T14:44:54.699Z,7.60
2022-11-20T14:47:25.722Z,8.18
2022-11-20T14:49:55.752Z,8.10
2022-11-20T14:52:25.683Z,8.55
2022-11-20T14:54:55.635Z,8.25
2022-11-20T14:57:27.644Z,8.65
2022-11-20T15:00:09.009Z,8.07
2022-11-20T15:02:42.329Z,7.82
2022-11-20T15:05:11.055Z,8.55
2022-11-20T15:07:41.197Z,9.05
2022-11-20T15:10:12.318Z,9.52
2022-11-20T15:12:48.840Z,9.23
2022-11-20T15:15:21.313Z,8.15
2022-11-20T15:17:49.347Z,8.73
2022-11-20T15:20:19.382Z,9.05
2022-11-20T15:22:47.369Z,8.68
2022-11-20T15:25:17.404Z,8.98
2022-11-20T15:27:48.598Z,10.13
2022-11-20T15:30:19.051Z,9.88
2022-11-20T15:32:48.106Z,11.45
2022-11-20T15:35:17.372Z,9.25
2022-11-20T15:37:45.391Z,10.38
2022-11-20T15:40:13.958Z,11.02
2022-11-20T15:43:02.583Z,10.23
2022-11-20T15:45:35.633Z,10.30
2022-11-20T15:48:03.832Z,11.50
2022-11-20T15:50:38.254Z,10.30
2022-11-20T15:53:06.454Z,10.82
2022-11-20T15:55:34.604Z,11.48
2022-11-20T15:58:02.575Z,11.00
2022-11-20T16:00:31.943Z,11.10
2022-11-20T16:02:59.853Z,11.63
2022-11-20T16:05:30.812Z,13.23
2022-11-20T16:07:59.001Z,12.13
2022-11-20T16:10:26.917Z,11.93
2022-11-20T16:13:20.457Z,12.50
2022-11-20T16:15:54.849Z,12.77
2022-11-20T16:18:23.640Z,12.05
2022-11-20T16:20:56.602Z,14.10
2022-11-20T16:23:24.854Z,14.80
2022-11-20T16:25:53.160Z,13.88
2022-11-20T16:28:21.265Z,13.10
2022-11-20T16:30:50.567Z,14.68
2022-11-20T16:33:19.510Z,12.93
2022-11-20T16:35:47.364Z,12.70
2022-11-20T16:38:15.298Z,12.93
2022-11-20T16:40:43.159Z,12.95
2022-11-20T16:43:12.725Z,14.25
2022-11-20T16:45:43.316Z,13.13
2022-11-20T16:48:17.893Z,11.75
2022-11-20T16:50:51.205Z,12.95
2022-11-20T16:53:19.847Z,13.55
2022-11-20T16:55:48.248Z,13.85
2022-11-20T16:58:16.488Z,14.40
2022-11-20T17:00:51.143Z,17.05
2022-11-20T17:03:21.238Z,16.67
2022-11-20T17:05:49.124Z,15.55
2022-11-20T17:08:19.162Z,15.75
2022-11-20T17:10:47.022Z,16.25
2022-11-20T17:13:14.910Z,15.25
2022-11-20T17:15:42.855Z,16.05
2022-11-20T17:18:10.696Z,15.43
2022-11-20T17:20:39.868Z,16.42
2022-11-20T17:23:08.158Z,16.77
2022-11-20T17:25:36.376Z,17.23
2022-11-20T17:28:04.261Z,17.02
2022-11-20T17:30:32.171Z,16.35
2022-11-20T17:33:00.043Z,17.75
2022-11-20T17:35:27.903Z,19.15
2022-11-20T17:37:57.594Z,16.75
2022-11-20T17:40:27.642Z,17.85
2022-11-20T17:42:56.143Z,16.92
2022-11-20T17:45:24.159Z,17.27
2022-11-20T17:47:52.218Z,17.33
2022-11-20T17:50:20.103Z,17.33
2022-11-20T17:52:48.155Z,17.00
2022-11-20T17:55:17.480Z,17.15
2022-11-20T17:57:53.788Z,16.27
2022-11-20T18:00:22.347Z,16.15
2022-11-20T18:02:50.750Z,16.20
2022-11-20T18:05:18.836Z,18.10
2022-11-20T18:07:46.835Z,15.05
2022-11-20T18:10:14.758Z,16.42
2022-11-20T18:12:46.215Z,16.73
2022-11-20T18:15:14.181Z,16.38
2022-11-20T18:17:42.457Z,16.23
2022-11-20T18:20:28.577Z,15.65
2022-11-20T18:22:58.596Z,15.75
2022-11-20T18:25:26.528Z,16.60
2022-11-20T18:27:56.661Z,16.65
2022-11-20T18:30:24.668Z,15.80
2022-11-20T18:32:52.543Z,16.08
2022-11-20T18:35:20.364Z,16.88
2022-11-20T18:37:48.554Z,18.27
2022-11-20T18:40:16.606Z,17.48
2022-11-20T18:43:01.727Z,18.30
2022-11-20T18:45:31.004Z,17.60
2022-11-20T18:47:58.830Z,16.60
2022-11-20T18:50:27.089Z,13.98
2022-11-20T18:52:55.081Z,13.48
2022-11-20T18:55:25.170Z,15.05
2022-11-20T18:57:54.032Z,14.68
2022-11-20T19:00:22.279Z,14.65
2022-11-20T19:02:54.565Z,15.95
2022-11-20T19:05:22.632Z,13.85
2022-11-20T19:07:50.504Z,12.75
2022-11-20T19:10:20.454Z,12.25
2022-11-20T19:12:48.715Z,10.48
2022-11-20T19:15:16.633Z,11.23
2022-11-20T19:17:44.638Z,12.13
2022-11-20T19:20:14.150Z,13.68
2022-11-20T19:22:42.044Z,13.18
2022-11-20T19:25:10.601Z,14.57
2022-11-20T19:27:38.460Z,12.40
2022-11-20T19:30:07.648Z,11.05
2022-11-20T19:32:35.781Z,10.23
2022-11-20T19:35:04.012Z,8.45
2022-11-20T19:37:35.676Z,9.55
2022-11-20T19:40:04.893Z,8.38
2022-11-20T19:42:33.337Z,7.88
2022-11-20T19:45:01.406Z,7.72
2022-11-20T19:47:52.747Z,7.50
2022-11-20T19:50:17.341Z,6.50
2022-11-20T19:52:46.594Z,4.45
2022-11-20T19:55:14.481Z,3.90
2022-11-20T19:57:42.432Z,3.97
2022-11-20T20:00:12.409Z,3.50
2022-11-20T20:02:40.356Z,3.42
2022-11-20T20:05:08.970Z,4.30
2022-11-20T20:07:36.943Z,3.50
2022-11-20T20:10:07.319Z,3.72
2022-11-20T20:12:35.155Z,3.47
2022-11-20T20:15:03.026Z,3.53
2022-11-20T20:17:31.169Z,2.55
2022-11-20T20:19:58.993Z,3.38
2022-11-20T20:22:27.108Z,3.45
2022-11-20T20:24:54.955Z,2.55
2022-11-20T20:27:24.188Z,2.88
2022-11-20T20:29:52.086Z,2.75
2022-11-20T20:32:20.024Z,2.67
2022-11-20T20:34:47.856Z,2.20
2022-11-20T20:37:15.741Z,3.15
2022-11-20T20:39:44.098Z,2.63
2022-11-20T20:42:11.929Z,2.75
2022-11-20T20:44:58.856Z,2.33
2022-11-20T20:47:31.233Z,2.03
2022-11-20T20:49:59.157Z,2.28
2022-11-20T20:52:27.993Z,1.98
2022-11-20T20:54:55.884Z,2.50
2022-11-20T20:57:24.970Z,2.65
2022-11-20T20:59:54.313Z,2.53
2022-11-20T21:02:22.643Z,2.30
2022-11-20T21:04:50.977Z,2.60
2022-11-20T21:07:20.125Z,2.40
2022-11-20T21:09:48.051Z,2.45
2022-11-20T21:12:16.034Z,2.72
2022-11-20T21:14:44.056Z,2.38
2022-11-20T21:17:15.468Z,2.53
2022-11-20T21:19:43.585Z,2.55
2022-11-20T21:22:10.546Z,2.03
2022-11-20T21:24:38.500Z,2.25
2022-11-20T21:27:08.085Z,2.08
2022-11-20T21:29:35.920Z,1.80
2022-11-20T21:32:03.800Z,2.40
2022-11-20T21:34:33.032Z,2.47
2022-11-20T21:37:00.907Z,1.98
2022-11-20T21:39:30.390Z,2.00
2022-11-20T21:41:58.340Z,2.03
2022-11-20T21:44:33.353Z,2.00
2022-11-20T21:47:01.369Z,2.35
2022-11-20T21:49:29.288Z,2.17
2022-11-20T21:51:58.501Z,2.00
2022-11-20T21:54:26.649Z,1.88
2022-11-20T21:56:54.731Z,2.28
2022-11-20T21:59:22.903Z,2.13
2022-11-20T22:01:51.054Z,2.00
2022-11-20T22:04:18.959Z,2.10
2022-11-20T22:06:46.909Z,2.05
2022-11-20T22:09:16.714Z,2.08
2022-11-20T22:11:44.622Z,2.20
2022-11-20T22:14:20.811Z,2.08
2022-11-20T22:16:50.329Z,2.78
2022-11-20T22:19:19.173Z,2.40
2022-11-20T22:21:47.815Z,2.47
2022-11-20T22:24:18.673Z,2.35
2022-11-20T22:26:46.993Z,2.58
2022-11-20T22:29:16.521Z,2.25
2022-11-20T22:31:44.776Z,2.55
2022-11-20T22:34:14.146Z,2.15
2022-11-20T22:36:42.359Z,2.22
2022-11-20T22:39:10.779Z,2.20
2022-11-20T22:41:40.167Z,2.20
2022-11-20T22:44:09.419Z,2.28
2022-11-20T22:46:38.291Z,2.30
2022-11-20T22:49:08.623Z,2.20
2022-11-20T22:51:39.014Z,2.35
2022-11-20T22:54:07.362Z,1.98
2022-11-20T22:56:35.413Z,2.13
2022-11-20T22:59:05.297Z,2.50
2022-11-20T23:01:34.738Z,2.40
2022-11-20T23:04:04.222Z,2.50
2022-11-20T23:06:34.232Z,2.47
2022-11-20T23:09:02.421Z,2.53
2022-11-20T23:11:32.163Z,2.90
2022-11-20T23:14:01.481Z,2.35
2022-11-20T23:16:32.107Z,2.47
2022-11-20T23:19:02.241Z,2.25
2022-11-20T23:21:30.229Z,2.38
2022-11-20T23:23:59.625Z,1.92
2022-11-20T23:26:29.672Z,1.90
2022-11-20T23:28:59.006Z,1.95
2022-11-20T23:31:28.599Z,2.00
2022-11-20T23:33:58.410Z,2.10
2022-11-20T23:36:26.493Z,1.80
2022-11-20T23:38:54.452Z,1.95
2022-11-20T23:41:22.365Z,1.85
2022-11-20T23:43:50.470Z,2.47
2022-11-20T23:46:18.324Z,2.00
2022-11-20T23:48:46.554Z,1.85
2022-11-20T23:51:15.904Z,1.90
2022-11-20T23:53:44.085Z,2.22
2022-11-20T23:56:14.352Z,2.03
2022-11-20T23:58:42.948Z,2.70
